Time;durP1;ratioP1;P1;durP2;ratioP2;P2;SDS_P1;SDS_P2;PMS_P1;PMS_P2;Temp;Humidity;BMP_temperature;BMP_pressure;BME280_temperature;BME280_humidity;BME280_pressure;Samples;Min_cycle;Max_cycle;Signal;HPM_P1;HPM_P2
2022/12/20 00:00:17;;;;;;;5.00;1.90;;;10.40;97.00;;;;;;5013747;28;20042;-77
2022/12/20 00:02:42;;;;;;;4.53;1.87;;;10.40;97.00;;;;;;5030304;28;20113;-77
2022/12/20 00:05:08;;;;;;;5.33;2.03;;;10.40;97.00;;;;;;5013728;28;20025;-77
2022/12/20 00:07:34;;;;;;;6.77;1.93;;;10.40;97.00;;;;;;5013875;28;20025;-77
2022/12/20 00:09:59;;;;;;;5.07;2.13;;;10.40;96.90;;;;;;5015149;28;20029;-77
2022/12/20 00:12:26;;;;;;;7.37;1.80;;;10.30;96.90;;;;;;5030449;28;20022;-77
2022/12/20 00:14:51;;;;;;;5.20;1.77;;;10.40;96.90;;;;;;4996842;28;20061;-77
2022/12/20 00:17:17;;;;;;;5.30;2.00;;;10.40;96.90;;;;;;5015181;28;20404;-77
2022/12/20 00:19:43;;;;;;;5.10;1.77;;;10.40;96.90;;;;;;5014320;28;20026;-77
2022/12/20 00:22:09;;;;;;;5.07;1.80;;;10.40;96.90;;;;;;5030240;28;20398;-77
2022/12/20 00:24:35;;;;;;;3.60;1.60;;;10.40;96.90;;;;;;5014794;28;20033;-77
2022/12/20 00:27:01;;;;;;;3.40;1.90;;;10.40;96.90;;;;;;5014657;28;20057;-76
2022/12/20 00:29:26;;;;;;;3.93;1.83;;;10.40;96.80;;;;;;5013431;28;20498;-77
2022/12/20 00:31:52;;;;;;;4.90;1.63;;;10.40;96.80;;;;;;5014564;28;20034;-77
2022/12/20 00:34:17;;;;;;;3.67;1.60;;;10.50;96.80;;;;;;4980853;28;20033;-77
2022/12/20 00:36:43;;;;;;;4.40;1.60;;;10.50;96.70;;;;;;5013250;28;20137;-77
2022/12/20 00:39:09;;;;;;;4.80;1.70;;;10.60;96.70;;;;;;5029744;28;20481;-77
2022/12/20 00:41:35;;;;;;;4.93;1.57;;;10.60;96.50;;;;;;4997167;28;20042;-77
2022/12/20 00:44:02;;;;;;;4.40;1.53;;;10.70;96.40;;;;;;5029954;28;20030;-77
2022/12/20 00:46:28;;;;;;;3.27;1.37;;;10.80;96.30;;;;;;5014332;28;20042;-77
2022/12/20 00:48:55;;;;;;;5.47;1.60;;;10.80;96.10;;;;;;5013117;28;20393;-78
2022/12/20 00:51:24;;;;;;;5.37;1.83;;;10.90;96.00;;;;;;5012965;28;20037;-77
2022/12/20 00:53:51;;;;;;;4.70;1.60;;;11.00;96.00;;;;;;5029608;28;20029;-77
2022/12/20 00:56:17;;;;;;;3.50;1.15;;;11.00;95.70;;;;;;5014220;28;20026;-78
2022/12/20 00:58:43;;;;;;;7.38;1.60;;;11.10;95.70;;;;;;5012948;28;20057;-77
2022/12/20 01:01:22;;;;;;;5.00;1.80;;;11.10;95.60;;;;;;5014157;28;20063;-77
2022/12/20 01:03:49;;;;;;;4.05;1.67;;;11.20;95.40;;;;;;5029724;28;20530;-78
2022/12/20 01:06:16;;;;;;;4.13;1.33;;;11.20;95.30;;;;;;5012908;28;20033;-77
2022/12/20 01:08:42;;;;;;;4.18;1.45;;;11.20;95.10;;;;;;5014128;28;20104;-77
2022/12/20 01:11:12;;;;;;;4.43;1.50;;;11.20;95.00;;;;;;5013828;28;20108;-77
2022/12/20 01:13:40;;;;;;;3.05;1.27;;;11.30;94.90;;;;;;5013686;28;20026;-77
2022/12/20 01:16:21;;;;;;;3.10;1.20;;;11.30;94.80;;;;;;5013638;28;20026;-77
2022/12/20 01:18:48;;;;;;;4.03;1.33;;;11.40;94.70;;;;;;5029211;28;20034;-77
2022/12/20 01:21:15;;;;;;;4.00;1.40;;;11.40;94.70;;;;;;5013479;28;20034;-77
2022/12/20 01:23:41;;;;;;;3.30;1.13;;;11.40;94.70;;;;;;5029039;28;20018;-77
2022/12/20 01:26:10;;;;;;;4.45;1.38;;;11.40;94.60;;;;;;5013257;28;20496;-77
2022/12/20 01:28:38;;;;;;;3.80;1.73;;;11.40;94.50;;;;;;5027989;28;20438;-77
2022/12/20 01:31:12;;;;;;;6.40;1.73;;;11.50;94.40;;;;;;5013820;28;20030;-77
2022/12/20 01:33:38;;;;;;;5.63;1.70;;;11.50;94.30;;;;;;5013707;28;20108;-77
2022/12/20 01:36:06;;;;;;;5.13;1.17;;;11.50;94.30;;;;;;5028343;28;20458;-77
2022/12/20 01:38:33;;;;;;;4.43;1.30;;;11.50;94.30;;;;;;5028600;28;20026;-77
2022/12/20 01:41:00;;;;;;;4.97;1.40;;;11.50;94.20;;;;;;5028346;28;20058;-77
2022/12/20 01:43:51;;;;;;;4.95;1.35;;;11.50;94.30;;;;;;5011931;28;20433;-78
2022/12/20 01:46:20;;;;;;;3.67;1.35;;;11.50;94.60;;;;;;5013613;28;20030;-78
2022/12/20 01:48:55;;;;;;;4.88;1.75;;;11.50;94.80;;;;;;5013329;28;20026;-77
2022/12/20 01:51:22;;;;;;;4.45;1.63;;;11.40;94.80;;;;;;5027892;28;20022;-77
2022/12/20 01:53:55;;;;;;;4.40;1.33;;;11.40;95.40;;;;;;5012417;28;20117;-77
2022/12/20 01:56:21;;;;;;;6.50;1.90;;;11.30;95.80;;;;;;5028711;28;20033;-77
2022/12/20 01:58:50;;;;;;;6.60;1.80;;;11.20;96.30;;;;;;5012192;28;20277;-78
2022/12/20 02:01:16;;;;;;;4.50;1.67;;;11.20;96.70;;;;;;5028429;28;20482;-77
2022/12/20 02:03:43;;;;;;;4.97;2.08;;;11.10;97.00;;;;;;5012352;28;20032;-77
2022/12/20 02:06:21;;;;;;;6.70;1.93;;;11.00;97.90;;;;;;5011764;28;20079;-77
2022/12/20 02:08:48;;;;;;;6.90;2.43;;;10.90;98.60;;;;;;5028615;28;20048;-77
2022/12/20 02:11:19;;;;;;;4.63;2.37;;;10.80;99.40;;;;;;5028525;28;20026;-78
2022/12/20 02:14:04;;;;;;;6.83;2.53;;;10.80;99.90;;;;;;5028439;28;20390;-78
2022/12/20 02:16:42;;;;;;;5.03;2.53;;;10.70;99.90;;;;;;5013104;28;20030;-78
2022/12/20 02:19:23;;;;;;;8.27;3.37;;;10.60;99.90;;;;;;5013105;28;20037;-77
2022/12/20 02:22:03;;;;;;;8.87;3.20;;;10.50;99.90;;;;;;5027810;28;20052;-78
2022/12/20 02:24:55;;;;;;;7.63;3.23;;;10.40;99.90;;;;;;5028556;28;20117;-77
2022/12/20 02:27:59;;;;;;;7.13;2.50;;;10.40;99.90;;;;;;5011850;28;20087;-77
2022/12/20 02:30:31;;;;;;;7.05;3.08;;;10.30;99.90;;;;;;5025987;28;20038;-78
2022/12/20 02:33:03;;;;;;;7.00;2.93;;;10.30;99.90;;;;;;5028307;28;20026;-77
2022/12/20 02:35:32;;;;;;;5.73;2.83;;;10.20;99.90;;;;;;5012824;28;20045;-78
2022/12/20 02:38:00;;;;;;;8.73;3.67;;;10.20;99.90;;;;;;5028524;28;20053;-78
2022/12/20 02:40:36;;;;;;;9.00;3.63;;;10.20;99.90;;;;;;5031961;28;20038;-78
2022/12/20 02:45:14;;;;;;;9.47;3.40;;;10.20;99.90;;;;;;5016806;28;20473;-78
2022/12/20 02:45:52;;;;;;;6.20;3.17;;;10.20;99.90;;;;;;5016613;28;20033;-78
2022/12/20 02:48:18;;;;;;;8.20;3.43;;;10.20;99.90;;;;;;5015586;28;20608;-78
2022/12/20 02:50:51;;;;;;;7.07;3.50;;;10.10;99.90;;;;;;5031555;28;20040;-78
2022/12/20 02:53:17;;;;;;;6.95;3.00;;;10.10;99.90;;;;;;5031616;28;20401;-78
2022/12/20 02:56:01;;;;;;;6.07;3.03;;;10.20;99.90;;;;;;5016806;28;20037;-78
2022/12/20 02:58:42;;;;;;;8.30;3.55;;;10.10;99.90;;;;;;5031814;28;20022;-78
2022/12/20 03:01:16;;;;;;;9.87;3.37;;;10.10;99.90;;;;;;5031392;28;20048;-77
2022/12/20 03:03:42;;;;;;;;;;;10.10;99.90;;;;;;5032172;28;20022;-78
2022/12/20 03:06:07;;;;;;;7.97;3.10;;;10.10;99.90;;;;;;5016471;28;19913;-78
2022/12/20 03:08:33;;;;;;;4.37;2.50;;;10.10;99.90;;;;;;5015804;28;20541;-78
2022/12/20 03:10:59;;;;;;;6.10;2.87;;;10.10;99.90;;;;;;5031429;28;20034;-78
2022/12/20 03:13:25;;;;;;;6.33;3.70;;;10.20;99.90;;;;;;5015106;28;20474;-77
2022/12/20 03:15:51;;;;;;;6.23;3.37;;;10.10;99.90;;;;;;5014877;28;20108;-77
2022/12/20 03:18:16;;;;;;;6.80;2.60;;;10.10;99.90;;;;;;5031309;28;20188;-77
2022/12/20 03:20:43;;;;;;;7.33;3.20;;;10.20;99.90;;;;;;5030546;28;20053;-77
2022/12/20 03:23:08;;;;;;;7.90;3.07;;;10.10;99.90;;;;;;5030910;28;20026;-77
2022/12/20 03:25:34;;;;;;;6.03;2.73;;;10.10;99.90;;;;;;5014903;28;20032;-77
2022/12/20 03:28:00;;;;;;;6.83;2.93;;;10.20;99.90;;;;;;5016253;28;20038;-77
2022/12/20 03:30:26;;;;;;;7.73;3.17;;;10.20;99.90;;;;;;4998589;28;20025;-77
2022/12/20 03:32:51;;;;;;;6.33;2.90;;;10.20;99.90;;;;;;5030701;28;20034;-77
2022/12/20 03:35:17;;;;;;;8.80;2.77;;;10.10;99.90;;;;;;5030838;28;20046;-77
2022/12/20 03:37:43;;;;;;;9.07;2.77;;;10.10;99.90;;;;;;5030422;28;20022;-77
2022/12/20 03:40:09;;;;;;;6.60;3.60;;;10.20;99.90;;;;;;5014495;28;20078;-77
2022/12/20 03:42:36;;;;;;;6.03;2.83;;;10.20;99.90;;;;;;5030937;28;20080;-77
2022/12/20 03:45:02;;;;;;;7.60;3.20;;;10.20;99.90;;;;;;5030879;28;20089;-77
2022/12/20 03:47:28;;;;;;;6.43;3.10;;;10.20;99.90;;;;;;5014061;28;20022;-79
2022/12/20 03:49:53;;;;;;;5.23;3.00;;;10.20;99.90;;;;;;5014011;28;20481;-77
2022/12/20 03:52:19;;;;;;;7.67;3.17;;;10.30;99.90;;;;;;5030883;28;20462;-78
2022/12/20 03:54:45;;;;;;;7.23;3.27;;;10.30;99.90;;;;;;5030676;28;20041;-78
2022/12/20 03:57:10;;;;;;;7.93;3.00;;;10.20;99.90;;;;;;5014237;28;20030;-78
2022/12/20 03:59:36;;;;;;;6.43;3.07;;;10.30;99.90;;;;;;4981788;28;20470;-77
2022/12/20 04:02:02;;;;;;;6.17;2.53;;;10.30;99.90;;;;;;4997603;28;20042;-78
2022/12/20 04:04:28;;;;;;;8.40;3.13;;;10.30;99.90;;;;;;5015054;28;20058;-77
2022/12/20 04:06:54;;;;;;;6.90;2.83;;;10.30;99.90;;;;;;5030208;28;20026;-77
2022/12/20 04:09:20;;;;;;;5.80;2.70;;;10.40;99.90;;;;;;5015167;28;20036;-78
2022/12/20 04:11:45;;;;;;;4.90;2.67;;;10.40;99.90;;;;;;5014030;28;20040;-77
2022/12/20 04:14:11;;;;;;;5.07;2.47;;;10.30;99.90;;;;;;5014146;28;20414;-78
2022/12/20 04:16:36;;;;;;;5.47;2.80;;;10.40;99.90;;;;;;4998455;28;20036;-78
2022/12/20 04:19:02;;;;;;;6.30;2.80;;;10.50;99.90;;;;;;4998228;28;20033;-77
2022/12/20 04:21:30;;;;;;;7.33;2.70;;;10.40;99.90;;;;;;5013646;28;20052;-77
2022/12/20 04:23:56;;;;;;;4.40;2.40;;;10.50;99.90;;;;;;5014919;28;20052;-77
2022/12/20 04:26:22;;;;;;;5.83;2.50;;;10.50;99.90;;;;;;5038602;28;20057;-77
2022/12/20 04:28:48;;;;;;;7.70;2.77;;;10.50;99.90;;;;;;5032938;28;20071;-78
2022/12/20 04:31:14;;;;;;;7.13;2.70;;;10.60;99.90;;;;;;5033088;28;20037;-77
2022/12/20 04:33:40;;;;;;;4.70;2.63;;;10.60;99.90;;;;;;4999613;28;20021;-77
2022/12/20 04:36:06;;;;;;;6.23;2.10;;;10.60;99.90;;;;;;5034221;28;20053;-77
2022/12/20 04:38:31;;;;;;;8.02;2.10;;;10.60;99.90;;;;;;5049955;28;20478;-77
2022/12/20 04:40:57;;;;;;;7.00;2.80;;;10.70;99.90;;;;;;5033187;28;20116;-77
2022/12/20 04:43:24;;;;;;;5.47;2.43;;;10.70;99.90;;;;;;5034234;28;20104;-77
2022/12/20 04:45:51;;;;;;;5.18;2.15;;;10.80;99.90;;;;;;5034171;28;20053;-77
2022/12/20 04:48:18;;;;;;;5.60;2.20;;;10.80;99.90;;;;;;5034283;28;20100;-77
2022/12/20 04:50:48;;;;;;;4.80;1.83;;;10.80;99.90;;;;;;5034063;28;20076;-78
2022/12/20 04:55:59;;;;;;;3.63;1.30;;;10.90;99.90;;;;;;5034128;28;20045;-78
2022/12/20 04:58:24;;;;;;;6.50;1.85;;;10.90;99.90;;;;;;5049123;28;20021;-77
2022/12/20 05:00:51;;;;;;;4.67;1.70;;;11.00;99.90;;;;;;5048869;28;20029;-78
2022/12/20 05:03:18;;;;;;;5.67;2.10;;;11.00;99.90;;;;;;5032227;28;20033;-77
2022/12/20 05:05:43;;;;;;;3.05;1.55;;;11.10;99.90;;;;;;5000322;28;20030;-78
2022/12/20 05:08:09;;;;;;;4.10;1.70;;;11.10;99.90;;;;;;5033601;28;20040;-77
2022/12/20 05:10:34;;;;;;;4.03;1.98;;;11.20;99.90;;;;;;5032421;28;20064;-78
2022/12/20 05:13:00;;;;;;;4.55;1.48;;;11.20;99.90;;;;;;5033840;28;20083;-77
2022/12/20 05:15:26;;;;;;;5.60;1.75;;;11.20;99.90;;;;;;5032441;28;20113;-77
2022/12/20 05:17:51;;;;;;;5.07;2.27;;;11.30;99.90;;;;;;5032184;28;20030;-77
2022/12/20 05:20:17;;;;;;;5.43;2.00;;;11.30;99.90;;;;;;5033044;28;20057;-77
2022/12/20 05:28:11;;;;;;;4.70;2.08;;;11.20;99.90;;;;;;5033448;28;20080;-77
2022/12/20 05:30:36;;;;;;;5.77;2.27;;;11.10;99.90;;;;;;5032305;28;20474;-79
2022/12/20 05:33:02;;;;;;;5.43;2.30;;;11.10;99.90;;;;;;5048790;28;20030;-77
2022/12/20 05:35:28;;;;;;;5.15;2.08;;;11.10;99.90;;;;;;5048473;28;20046;-77
2022/12/20 05:37:53;;;;;;;6.00;2.10;;;11.00;99.90;;;;;;5033367;28;20026;-77
2022/12/20 05:40:19;;;;;;;5.30;2.47;;;11.00;99.90;;;;;;5015790;28;20421;-77
2022/12/20 05:42:45;;;;;;;6.03;2.20;;;11.00;99.90;;;;;;4999190;28;20124;-77
2022/12/20 05:45:10;;;;;;;7.37;2.30;;;11.00;99.90;;;;;;5032144;28;20028;-78
2022/12/20 05:47:37;;;;;;;4.93;2.13;;;10.90;99.90;;;;;;5032008;28;20026;-78
2022/12/20 05:50:04;;;;;;;5.80;2.67;;;11.00;99.90;;;;;;5032620;28;20436;-77
2022/12/20 05:52:30;;;;;;;4.00;2.07;;;10.90;99.90;;;;;;5032052;28;20462;-77
2022/12/20 05:54:55;;;;;;;6.30;2.67;;;10.90;99.90;;;;;;5015890;28;20033;-77
2022/12/20 05:57:21;;;;;;;4.70;2.10;;;10.90;99.90;;;;;;5048269;28;20030;-77
2022/12/20 05:59:47;;;;;;;4.83;2.40;;;10.90;99.90;;;;;;5033073;28;20022;-77
2022/12/20 06:02:13;;;;;;;5.70;3.10;;;10.80;99.90;;;;;;5031518;28;20041;-77
2022/12/20 06:04:39;;;;;;;6.07;2.80;;;10.90;99.90;;;;;;5032021;28;20116;-77
2022/12/20 06:07:05;;;;;;;5.63;1.90;;;10.90;99.90;;;;;;5048611;28;20120;-77
2022/12/20 06:09:31;;;;;;;10.67;2.93;;;10.90;99.90;;;;;;5033469;28;20418;-77
2022/12/20 06:11:58;;;;;;;5.77;1.90;;;10.90;99.90;;;;;;5048361;28;20022;-77
2022/12/20 06:14:23;;;;;;;4.93;2.33;;;10.90;99.90;;;;;;5018035;28;20041;-78
2022/12/20 06:16:49;;;;;;;7.15;2.03;;;10.90;99.90;;;;;;5052227;28;20026;-78
2022/12/20 06:19:15;;;;;;;4.47;1.93;;;10.90;99.90;;;;;;5003015;28;20112;-79
2022/12/20 06:21:41;;;;;;;7.30;2.47;;;11.00;99.90;;;;;;5034453;28;20038;-78
2022/12/20 06:24:07;;;;;;;6.00;2.07;;;10.90;99.90;;;;;;5036637;28;20017;-78
2022/12/20 06:26:35;;;;;;;7.03;2.90;;;11.00;99.90;;;;;;5035072;28;20160;-78
2022/12/20 06:29:09;;;;;;;5.90;1.97;;;11.00;99.90;;;;;;5023599;28;20060;-79
2022/12/20 06:31:35;;;;;;;5.30;1.80;;;11.00;99.90;;;;;;5032958;28;20533;-78
2022/12/20 06:34:00;;;;;;;6.67;2.07;;;11.00;99.90;;;;;;5047847;28;20037;-78
2022/12/20 06:36:26;;;;;;;4.60;2.10;;;11.00;99.90;;;;;;5017782;28;20412;-79
2022/12/20 06:38:52;;;;;;;5.43;1.67;;;11.10;99.90;;;;;;5029966;28;20040;-78
2022/12/20 06:41:17;;;;;;;6.13;1.63;;;11.10;99.90;;;;;;5034600;28;20045;-78
2022/12/20 06:43:43;;;;;;;5.83;1.70;;;11.10;99.90;;;;;;5049569;28;20075;-79
2022/12/20 06:46:08;;;;;;;7.20;1.90;;;11.10;99.90;;;;;;5030269;28;20034;-78
2022/12/20 06:48:34;;;;;;;5.57;1.70;;;11.20;99.90;;;;;;5032686;28;20088;-78
2022/12/20 06:51:00;;;;;;;5.35;1.80;;;11.20;99.90;;;;;;5043803;28;20029;-78
2022/12/20 06:53:25;;;;;;;4.13;1.50;;;11.20;99.90;;;;;;5018324;28;20029;-78
2022/12/20 06:55:51;;;;;;;2.78;1.27;;;11.20;99.90;;;;;;5012795;28;20053;-78
2022/12/20 06:58:17;;;;;;;5.07;1.92;;;11.30;99.90;;;;;;5034682;28;20120;-78
2022/12/20 07:00:43;;;;;;;6.22;1.67;;;11.30;99.90;;;;;;5045650;28;20390;-78
2022/12/20 07:03:09;;;;;;;5.43;1.55;;;11.30;99.90;;;;;;5015395;28;20038;-78
2022/12/20 07:05:35;;;;;;;3.63;1.83;;;11.30;99.90;;;;;;5014206;28;20041;-78
2022/12/20 07:08:03;;;;;;;6.25;1.65;;;11.30;99.90;;;;;;5030800;28;20048;-79
2022/12/20 07:10:29;;;;;;;4.35;1.45;;;11.30;99.90;;;;;;5015754;28;20497;-77
2022/12/20 07:12:55;;;;;;;4.10;1.20;;;11.30;99.90;;;;;;5031403;28;20061;-77
2022/12/20 07:15:21;;;;;;;3.45;1.40;;;11.40;99.90;;;;;;5014740;28;20057;-77
2022/12/20 07:17:47;;;;;;;5.43;1.58;;;11.40;99.90;;;;;;5049794;28;20401;-78
2022/12/20 07:20:13;;;;;;;5.70;1.60;;;11.40;99.90;;;;;;5050383;28;20548;-77
2022/12/20 07:22:38;;;;;;;6.80;1.73;;;11.40;99.90;;;;;;5051118;28;20429;-78
2022/12/20 07:25:04;;;;;;;4.90;1.70;;;11.40;99.90;;;;;;5033125;28;20033;-85
2022/12/20 07:27:30;;;;;;;4.37;1.70;;;11.40;99.90;;;;;;5034794;28;20029;-82
2022/12/20 07:29:55;;;;;;;4.70;1.63;;;11.40;99.90;;;;;;5033970;28;20072;-81
2022/12/20 07:32:21;;;;;;;5.55;1.60;;;11.40;99.90;;;;;;5050632;28;20046;-81
2022/12/20 07:34:47;;;;;;;4.97;1.63;;;11.40;99.90;;;;;;5035506;28;20075;-80
2022/12/20 07:37:12;;;;;;;4.57;1.33;;;11.50;99.90;;;;;;5032055;28;20053;-81
2022/12/20 07:39:38;;;;;;;5.15;1.73;;;11.50;99.90;;;;;;5033458;28;20025;-81
2022/12/20 07:42:04;;;;;;;5.18;1.70;;;11.50;99.90;;;;;;5050245;28;20045;-82
2022/12/20 07:44:29;;;;;;;4.78;1.90;;;11.40;99.90;;;;;;5035766;28;20041;-82
2022/12/20 07:46:55;;;;;;;4.80;1.93;;;11.50;99.90;;;;;;5033981;28;20033;-82
2022/12/20 07:49:21;;;;;;;8.63;1.70;;;11.50;99.90;;;;;;5034036;28;20070;-82
2022/12/20 07:51:50;;;;;;;6.88;1.55;;;11.40;99.90;;;;;;5034352;28;20489;-81
2022/12/20 07:54:30;;;;;;;7.13;1.70;;;11.50;99.90;;;;;;5034177;28;20025;-82
2022/12/20 07:56:59;;;;;;;4.80;1.58;;;11.50;99.90;;;;;;5035120;28;20501;-82
2022/12/20 07:59:40;;;;;;;6.60;1.83;;;11.50;99.90;;;;;;5035013;28;20477;-82
2022/12/20 08:02:21;;;;;;;4.30;1.58;;;11.50;99.90;;;;;;5033651;28;20060;-81
2022/12/20 08:04:47;;;;;;;3.88;1.40;;;11.50;99.90;;;;;;5034024;28;20029;-82
2022/12/20 08:07:13;;;;;;;6.05;1.92;;;11.50;99.90;;;;;;5033620;28;20029;-82
2022/12/20 08:09:42;;;;;;;4.53;1.35;;;11.50;99.90;;;;;;5033641;28;20034;-82
2022/12/20 08:12:11;;;;;;;7.80;1.85;;;11.50;99.90;;;;;;5035309;28;20021;-82
2022/12/20 08:14:37;;;;;;;3.53;1.77;;;11.40;99.90;;;;;;5033472;28;20048;-82
2022/12/20 08:17:03;;;;;;;4.90;1.48;;;11.40;99.90;;;;;;5035650;28;20421;-83
2022/12/20 08:19:28;;;;;;;3.08;1.15;;;11.40;99.90;;;;;;5034199;28;20075;-82
2022/12/20 08:21:54;;;;;;;5.23;2.07;;;11.40;99.90;;;;;;5052158;28;20049;-82
2022/12/20 08:24:20;;;;;;;4.75;1.65;;;11.40;99.90;;;;;;5034350;28;20025;-82
2022/12/20 08:26:45;;;;;;;9.02;1.83;;;11.40;99.90;;;;;;5034803;28;20112;-82
2022/12/20 08:29:11;;;;;;;5.22;1.95;;;11.40;99.90;;;;;;5036863;28;20450;-82
2022/12/20 08:31:39;;;;;;;3.70;1.40;;;11.40;99.90;;;;;;5037289;28;20034;-82
2022/12/20 08:34:05;;;;;;;4.90;1.53;;;11.40;99.90;;;;;;5050258;28;20405;-83
2022/12/20 08:36:31;;;;;;;4.38;1.38;;;11.30;99.90;;;;;;5032390;28;20061;-82
2022/12/20 08:38:56;;;;;;;7.10;1.67;;;11.30;99.90;;;;;;5033238;28;20026;-82
2022/12/20 08:41:22;;;;;;;6.25;1.75;;;11.40;99.90;;;;;;5016925;28;20037;-81
2022/12/20 08:43:48;;;;;;;3.70;1.60;;;11.40;99.90;;;;;;5032624;28;20124;-82
2022/12/20 08:46:14;;;;;;;5.73;1.40;;;11.40;99.90;;;;;;5033447;28;20116;-81
2022/12/20 08:48:39;;;;;;;5.70;1.60;;;11.40;99.90;;;;;;5049973;28;20052;-82
2022/12/20 08:51:07;;;;;;;4.57;1.63;;;11.40;99.90;;;;;;5032334;28;20439;-81
2022/12/20 08:53:34;;;;;;;4.28;1.30;;;11.40;99.90;;;;;;5032990;28;20033;-82
2022/12/20 08:56:07;;;;;;;5.25;1.38;;;11.40;99.90;;;;;;5034036;28;20143;-81
2022/12/20 08:58:33;;;;;;;6.00;1.48;;;11.40;99.90;;;;;;5049960;28;20079;-82
2022/12/20 09:00:59;;;;;;;3.72;1.25;;;11.30;99.90;;;;;;5032834;28;20426;-82
2022/12/20 09:03:26;;;;;;;4.00;1.40;;;11.40;99.90;;;;;;5016933;28;20059;-82
2022/12/20 09:05:52;;;;;;;4.20;1.50;;;11.40;99.90;;;;;;5049174;28;20048;-82
2022/12/20 09:08:17;;;;;;;4.72;2.28;;;11.40;99.90;;;;;;5049838;28;20025;-81
2022/12/20 09:10:43;;;;;;;3.83;1.40;;;11.30;99.90;;;;;;5032543;28;20045;-83
2022/12/20 09:13:10;;;;;;;4.65;1.77;;;11.30;99.90;;;;;;5032625;28;20069;-82
2022/12/20 09:15:36;;;;;;;3.63;1.27;;;11.20;99.90;;;;;;5032975;28;20029;-82
2022/12/20 09:18:02;;;;;;;6.57;2.20;;;11.20;99.90;;;;;;5033785;28;20021;-83
2022/12/20 09:20:28;;;;;;;7.17;2.23;;;11.10;99.90;;;;;;5032196;28;20056;-83
2022/12/20 09:22:54;;;;;;;6.97;2.20;;;11.10;99.90;;;;;;5048998;28;20112;-82
2022/12/20 09:25:19;;;;;;;6.30;2.20;;;11.00;99.90;;;;;;5032608;28;20449;-83
2022/12/20 09:27:45;;;;;;;6.53;2.00;;;11.00;99.90;;;;;;5032607;28;20465;-83
2022/12/20 09:30:11;;;;;;;5.13;1.63;;;10.90;99.90;;;;;;5049213;28;20473;-83
2022/12/20 09:32:37;;;;;;;5.63;1.67;;;10.90;99.90;;;;;;5033310;28;20029;-82
2022/12/20 09:35:03;;;;;;;4.60;1.77;;;10.80;99.90;;;;;;5033876;28;20041;-83
2022/12/20 09:37:31;;;;;;;8.00;1.90;;;10.80;99.90;;;;;;5048608;28;20116;-83
2022/12/20 09:39:57;;;;;;;4.63;2.00;;;10.80;99.90;;;;;;5033690;28;20018;-83
2022/12/20 09:42:26;;;;;;;5.67;2.37;;;10.70;99.90;;;;;;5032885;28;20060;-83
2022/12/20 09:44:54;;;;;;;3.50;1.80;;;10.70;99.90;;;;;;5031949;28;20057;-83
2022/12/20 09:47:23;;;;;;;4.03;1.77;;;10.70;99.90;;;;;;5033016;28;20453;-82
2022/12/20 09:49:54;;;;;;;6.00;2.33;;;10.70;99.90;;;;;;5033140;28;20080;-83
2022/12/20 09:53:09;;;;;;;4.63;1.83;;;10.60;99.90;;;;;;5032026;28;20029;-83
2022/12/20 09:55:39;;;;;;;5.80;2.40;;;10.60;99.90;;;;;;5033368;28;20097;-83
2022/12/20 09:58:43;;;;;;;5.27;2.47;;;10.60;99.90;;;;;;5031957;28;20026;-83
2022/12/20 10:01:23;;;;;;;6.33;2.17;;;10.60;99.90;;;;;;5032958;28;20041;-83
2022/12/20 10:03:49;;;;;;;6.83;2.00;;;10.60;99.90;;;;;;5032213;28;20025;-84
2022/12/20 10:06:33;;;;;;;5.47;2.53;;;10.60;99.90;;;;;;5032404;28;20037;-83
2022/12/20 10:09:09;;;;;;;8.55;2.42;;;10.60;99.90;;;;;;5033046;28;20528;-83
2022/12/20 10:11:38;;;;;;;5.73;2.07;;;10.60;99.90;;;;;;5048588;28;20044;-83
2022/12/20 10:14:42;;;;;;;9.00;2.93;;;10.60;99.90;;;;;;5048288;28;20026;-82
2022/12/20 10:17:31;;;;;;;9.07;2.70;;;10.60;99.90;;;;;;5033237;28;20083;-82
2022/12/20 10:20:01;;;;;;;8.00;2.47;;;10.60;99.90;;;;;;5030282;28;20040;-82
2022/12/20 10:22:39;;;;;;;5.33;2.00;;;10.60;99.90;;;;;;5033166;28;20530;-83
2022/12/20 10:25:21;;;;;;;6.13;2.20;;;10.60;99.90;;;;;;5031460;28;20021;-83
2022/12/20 10:27:49;;;;;;;6.93;2.40;;;10.60;99.90;;;;;;5031801;28;20025;-83
2022/12/20 10:30:18;;;;;;;7.33;2.77;;;10.60;99.90;;;;;;5031159;28;20071;-83
2022/12/20 10:32:49;;;;;;;6.23;2.40;;;10.60;99.90;;;;;;5048468;28;20025;-83
2022/12/20 10:35:28;;;;;;;6.27;2.73;;;10.60;99.90;;;;;;5031614;28;20096;-83
2022/12/20 10:38:16;;;;;;;7.10;2.30;;;10.50;99.90;;;;;;5031650;28;20486;-84
2022/12/20 10:40:43;;;;;;;6.73;3.10;;;10.50;99.90;;;;;;5031742;28;20037;-83
2022/12/20 10:43:19;;;;;;;5.13;2.60;;;10.50;99.90;;;;;;5033088;28;20022;-84
2022/12/20 10:45:56;;;;;;;9.93;3.27;;;10.50;99.90;;;;;;5033027;28;20033;-83
2022/12/20 10:48:27;;;;;;;7.70;3.30;;;10.50;99.90;;;;;;5033328;28;20028;-83
2022/12/20 10:50:56;;;;;;;5.10;2.67;;;10.40;99.90;;;;;;5047595;28;20485;-82
2022/12/20 10:53:24;;;;;;;7.40;3.83;;;10.50;99.90;;;;;;5047933;28;20030;-83
2022/12/20 10:55:50;;;;;;;8.40;3.77;;;10.40;99.90;;;;;;5047589;28;20535;-82
2022/12/20 10:58:34;;;;;;;7.47;3.50;;;10.40;99.90;;;;;;5031340;28;20037;-83
2022/12/20 11:01:14;;;;;;;7.45;3.22;;;10.40;99.90;;;;;;5051344;28;20510;-82
2022/12/20 11:04:02;;;;;;;8.37;3.80;;;10.50;99.90;;;;;;5034756;28;20053;-82
2022/12/20 11:06:43;;;;;;;6.87;3.00;;;10.50;99.90;;;;;;5034975;28;20025;-82
2022/12/20 11:09:27;;;;;;;7.63;3.20;;;10.50;99.90;;;;;;5035228;28;20018;-82
2022/12/20 11:12:01;;;;;;;10.30;3.50;;;10.50;99.90;;;;;;5036314;28;20021;-83
2022/12/20 11:14:27;;;;;;;5.23;2.80;;;10.40;99.90;;;;;;5036589;28;20491;-84
2022/12/20 11:16:54;;;;;;;6.37;3.30;;;10.50;99.90;;;;;;5035078;28;20477;-83
2022/12/20 11:19:47;;;;;;;9.17;3.37;;;10.40;99.90;;;;;;5036189;28;20021;-79
2022/12/20 11:22:47;;;;;;;7.30;3.40;;;10.50;99.90;;;;;;5035681;28;20029;-83
2022/12/20 11:25:16;;;;;;;7.27;3.80;;;10.50;99.90;;;;;;5035700;28;20125;-82
2022/12/20 11:27:50;;;;;;;10.27;3.47;;;10.50;99.90;;;;;;5051476;28;20025;-82
2022/12/20 11:30:20;;;;;;;9.23;2.93;;;10.50;99.90;;;;;;5035813;28;20434;-83
2022/12/20 11:33:01;;;;;;;7.80;3.47;;;10.50;99.90;;;;;;5050921;28;20029;-82
2022/12/20 11:35:33;;;;;;;6.27;3.50;;;10.50;99.90;;;;;;5035419;28;20049;-83
2022/12/20 11:38:09;;;;;;;7.57;3.10;;;10.50;99.90;;;;;;5050624;28;20036;-83
2022/12/20 11:41:13;;;;;;;9.03;3.80;;;10.60;99.90;;;;;;5034246;28;20063;-84
2022/12/20 11:43:38;;;;;;;9.77;3.38;;;10.60;99.90;;;;;;5016328;28;20486;-83
2022/12/20 11:46:16;;;;;;;6.40;3.50;;;10.60;99.90;;;;;;5050920;28;20040;-84
2022/12/20 11:48:41;;;;;;;7.27;3.27;;;10.60;99.90;;;;;;5035316;28;20096;-84
2022/12/20 11:51:24;;;;;;;8.07;3.40;;;10.60;99.90;;;;;;5050262;28;20450;-83
2022/12/20 11:54:01;;;;;;;8.20;3.23;;;10.60;99.90;;;;;;5034270;28;20140;-83
2022/12/20 11:56:38;;;;;;;8.73;3.50;;;10.60;99.90;;;;;;5035026;28;20373;-83
2022/12/20 11:59:28;;;;;;;5.87;3.50;;;10.60;99.90;;;;;;5035181;28;20032;-83
2022/12/20 12:02:19;;;;;;;9.53;3.67;;;10.60;99.90;;;;;;5050232;28;20445;-83
2022/12/20 12:05:05;;;;;;;8.70;3.93;;;10.70;99.90;;;;;;5034862;28;20056;-83
2022/12/20 12:07:35;;;;;;;12.43;4.50;;;10.70;99.90;;;;;;5034148;28;20053;-83
2022/12/20 12:10:12;;;;;;;8.60;4.13;;;10.70;99.90;;;;;;5034908;28;20091;-83
2022/12/20 12:12:43;;;;;;;10.50;5.00;;;10.70;99.90;;;;;;5034403;28;20057;-83
2022/12/20 12:15:14;;;;;;;10.57;4.17;;;10.70;99.90;;;;;;5034865;28;20038;-83
2022/12/20 12:18:05;;;;;;;11.70;4.53;;;10.70;99.90;;;;;;5050262;28;20082;-83
2022/12/20 12:20:35;;;;;;;8.47;4.57;;;10.70;99.90;;;;;;5050093;28;20061;-84
2022/12/20 12:23:20;;;;;;;9.37;4.10;;;10.70;99.90;;;;;;5035255;28;20108;-84
2022/12/20 12:25:46;;;;;;;12.20;4.93;;;10.70;99.90;;;;;;5030725;28;20489;-83
2022/12/20 12:28:13;;;;;;;9.50;4.97;;;10.70;99.90;;;;;;5012344;28;20038;-83
2022/12/20 12:30:50;;;;;;;11.43;5.77;;;10.70;99.90;;;;;;5014013;28;20026;-82
2022/12/20 12:33:23;;;;;;;10.13;4.57;;;10.70;99.90;;;;;;5028487;28;20018;-83
2022/12/20 12:36:01;;;;;;;12.37;4.80;;;10.70;99.90;;;;;;5014274;28;20129;-83
2022/12/20 12:38:49;;;;;;;10.53;5.00;;;10.70;99.90;;;;;;5014876;28;20038;-84
2022/12/20 12:42:00;;;;;;;10.70;4.83;;;10.70;99.90;;;;;;5014430;28;20467;-84
2022/12/20 12:45:06;;;;;;;11.70;5.17;;;10.70;99.90;;;;;;5014818;28;20112;-83
2022/12/20 12:47:44;;;;;;;11.23;5.57;;;10.70;99.90;;;;;;4992532;28;20026;-83
2022/12/20 12:50:23;;;;;;;10.33;4.53;;;10.60;99.90;;;;;;5025507;28;20041;-83
2022/12/20 12:52:58;;;;;;;10.77;5.27;;;10.60;99.90;;;;;;5014484;28;20037;-81
2022/12/20 12:55:36;;;;;;;14.83;6.27;;;10.60;99.90;;;;;;5014708;28;20071;-83
2022/12/20 12:58:29;;;;;;;12.23;6.43;;;10.60;99.90;;;;;;5014332;28;20115;-83
2022/12/20 13:00:57;;;;;;;13.77;6.30;;;10.70;99.90;;;;;;5014456;28;20034;-83
2022/12/20 13:03:44;;;;;;;10.53;5.83;;;10.60;99.90;;;;;;5029712;28;20045;-84
2022/12/20 13:06:22;;;;;;;10.93;6.40;;;10.70;99.90;;;;;;5029487;28;20026;-83
2022/12/20 13:09:03;;;;;;;10.53;6.33;;;10.60;99.90;;;;;;5030002;28;20470;-83